createdAt,value
2022-12-10T00:00:37.268Z,50.15
2022-12-10T00:03:05.031Z,48.42
2022-12-10T00:05:34.715Z,30.95
2022-12-10T00:08:02.070Z,32.08
2022-12-10T00:10:29.755Z,31.60
2022-12-10T00:12:57.092Z,49.95
2022-12-10T00:15:24.462Z,46.83
2022-12-10T00:17:52.054Z,50.05
2022-12-10T00:20:19.555Z,32.30
2022-12-10T00:22:46.883Z,41.85
2022-12-10T00:25:14.528Z,36.40
2022-12-10T00:27:41.948Z,37.40
2022-12-10T00:30:10.050Z,31.45
2022-12-10T00:32:38.126Z,35.97
2022-12-10T00:35:05.816Z,35.83
2022-12-10T00:37:33.880Z,35.72
2022-12-10T00:40:01.611Z,39.42
2022-12-10T00:42:28.972Z,38.65
2022-12-10T00:44:56.325Z,30.60
2022-12-10T00:47:24.230Z,30.17
2022-12-10T00:49:51.564Z,32.30
2022-12-10T00:52:18.902Z,25.65
2022-12-10T00:54:46.509Z,25.17
2022-12-10T00:57:13.858Z,24.90
2022-12-10T00:59:41.190Z,26.23
2022-12-10T01:02:08.795Z,25.90
2022-12-10T01:04:36.233Z,23.95
2022-12-10T01:07:06.841Z,27.80
2022-12-10T01:09:38.707Z,23.75
2022-12-10T01:12:06.414Z,24.37
2022-12-10T01:14:34.615Z,22.35
2022-12-10T01:17:04.100Z,20.50
2022-12-10T01:19:32.087Z,23.52
2022-12-10T01:22:02.724Z,20.45
2022-12-10T01:24:30.494Z,22.73
2022-12-10T01:26:57.890Z,19.90
2022-12-10T01:29:25.448Z,24.42
2022-12-10T01:31:53.811Z,24.92
2022-12-10T01:34:21.279Z,21.35
2022-12-10T01:36:53.253Z,20.27
2022-12-10T01:39:21.686Z,23.08
2022-12-10T01:41:56.977Z,23.23
2022-12-10T01:44:24.401Z,22.00
2022-12-10T01:46:56.136Z,19.83
2022-12-10T01:49:28.169Z,21.35
2022-12-10T01:51:56.127Z,21.42
2022-12-10T01:54:27.045Z,19.80
2022-12-10T01:56:59.548Z,19.77
2022-12-10T01:59:27.566Z,18.77
2022-12-10T02:02:26.136Z,18.83
2022-12-10T02:05:22.667Z,18.30
2022-12-10T02:08:00.584Z,14.47
2022-12-10T02:10:47.225Z,14.82
2022-12-10T02:13:25.977Z,12.50
2022-12-10T02:16:00.136Z,11.65
2022-12-10T02:18:52.665Z,12.13
2022-12-10T02:21:30.016Z,10.97
2022-12-10T02:24:00.564Z,11.43
2022-12-10T02:26:49.423Z,12.17
2022-12-10T02:29:26.065Z,10.60
2022-12-10T02:32:03.390Z,12.50
2022-12-10T02:34:34.548Z,13.87
2022-12-10T02:37:06.116Z,12.70
2022-12-10T02:39:40.317Z,13.17
2022-12-10T02:42:08.067Z,15.50
2022-12-10T02:44:36.634Z,14.03
2022-12-10T02:47:04.325Z,15.07
2022-12-10T02:49:32.343Z,14.03
2022-12-10T02:52:00.817Z,14.07
2022-12-10T02:54:39.713Z,12.10
2022-12-10T02:57:32.234Z,13.23
2022-12-10T03:00:07.423Z,13.37
2022-12-10T03:05:45.744Z,13.43
2022-12-10T03:08:18.006Z,12.47
2022-12-10T03:11:13.644Z,10.73
2022-12-10T03:14:23.595Z,9.98
2022-12-10T03:16:55.137Z,11.93
2022-12-10T03:19:24.770Z,13.87
2022-12-10T03:21:52.087Z,9.87
2022-12-10T03:24:19.428Z,8.67
2022-12-10T03:26:48.148Z,12.80
2022-12-10T03:29:18.508Z,9.33
2022-12-10T03:31:45.810Z,10.47
2022-12-10T03:34:13.617Z,9.10
2022-12-10T03:36:40.959Z,9.63
2022-12-10T03:39:08.545Z,8.60
2022-12-10T03:41:36.158Z,8.43
2022-12-10T03:44:03.499Z,9.73
2022-12-10T03:46:31.384Z,9.63
2022-12-10T03:48:59.423Z,10.53
2022-12-10T03:51:26.818Z,9.57
2022-12-10T03:53:54.276Z,10.50
2022-12-10T03:56:21.967Z,13.07
2022-12-10T03:58:49.295Z,12.17
2022-12-10T04:01:16.969Z,12.03
2022-12-10T04:03:44.739Z,12.77
2022-12-10T04:06:16.002Z,13.17
2022-12-10T04:08:43.388Z,12.60
2022-12-10T04:11:11.459Z,13.57
2022-12-10T04:13:57.528Z,12.83
2022-12-10T04:16:28.247Z,16.27
2022-12-10T04:19:01.378Z,15.53
2022-12-10T04:21:48.691Z,15.40
2022-12-10T04:24:35.092Z,15.93
2022-12-10T04:27:08.636Z,14.17
2022-12-10T04:29:35.978Z,17.80
2022-12-10T04:32:03.613Z,17.67
2022-12-10T04:34:31.006Z,19.60
2022-12-10T04:36:59.421Z,18.00
2022-12-10T04:39:26.993Z,20.00
2022-12-10T04:41:54.299Z,20.40
2022-12-10T04:44:21.668Z,19.10
2022-12-10T04:46:49.294Z,19.23
2022-12-10T04:49:16.912Z,18.67
2022-12-10T04:51:44.428Z,21.13
2022-12-10T04:54:12.495Z,21.20
2022-12-10T04:56:39.799Z,20.27
2022-12-10T04:59:07.168Z,22.27
2022-12-10T05:01:34.844Z,19.10
2022-12-10T05:04:03.553Z,18.90
2022-12-10T05:06:31.114Z,19.07
2022-12-10T05:08:58.807Z,18.17
2022-12-10T05:11:27.211Z,19.00
2022-12-10T05:13:54.844Z,16.37
2022-12-10T05:16:23.043Z,14.87
2022-12-10T05:18:50.983Z,19.83
2022-12-10T05:21:19.324Z,16.37
2022-12-10T05:23:50.679Z,13.63
2022-12-10T05:26:19.744Z,15.33
2022-12-10T05:28:52.272Z,13.33
2022-12-10T05:31:39.203Z,13.23
2022-12-10T05:34:09.124Z,15.13
2022-12-10T05:36:36.603Z,15.83
2022-12-10T05:39:04.344Z,15.23
2022-12-10T05:41:34.302Z,16.20
2022-12-10T05:44:02.062Z,17.00
2022-12-10T05:46:30.935Z,13.60
2022-12-10T05:48:58.653Z,14.60
2022-12-10T05:51:28.520Z,13.40
2022-12-10T05:53:56.769Z,12.47
2022-12-10T05:56:24.783Z,16.30
2022-12-10T05:58:55.637Z,17.50
2022-12-10T06:01:24.871Z,17.03
2022-12-10T06:03:53.368Z,18.63
2022-12-10T06:06:24.675Z,18.53
2022-12-10T06:08:52.432Z,18.33
2022-12-10T06:11:20.499Z,20.50
2022-12-10T06:13:51.737Z,21.37
2022-12-10T06:16:22.295Z,24.03
2022-12-10T06:18:49.727Z,24.13
2022-12-10T06:21:17.283Z,20.83
2022-12-10T06:23:44.956Z,22.97
2022-12-10T06:26:14.249Z,19.73
2022-12-10T06:28:41.840Z,21.27
2022-12-10T06:31:09.465Z,32.73
2022-12-10T06:33:36.933Z,21.53
2022-12-10T06:36:06.034Z,24.67
2022-12-10T06:38:34.281Z,21.57
2022-12-10T06:41:01.802Z,21.87
2022-12-10T06:43:30.378Z,19.23
2022-12-10T06:45:58.111Z,21.17
2022-12-10T06:48:25.527Z,23.27
2022-12-10T06:50:52.859Z,22.23
2022-12-10T06:53:20.726Z,20.17
2022-12-10T06:55:48.080Z,22.50
2022-12-10T06:58:15.395Z,23.17
2022-12-10T07:00:42.964Z,24.67
2022-12-10T07:03:10.327Z,23.70
2022-12-10T07:05:37.663Z,25.30
2022-12-10T07:08:05.486Z,27.43
2022-12-10T07:10:32.908Z,23.10
2022-12-10T07:13:01.293Z,24.70
2022-12-10T07:15:29.333Z,26.10
2022-12-10T07:17:56.672Z,25.23
2022-12-10T07:20:24.027Z,22.27
2022-12-10T07:22:51.661Z,22.57
2022-12-10T07:25:19.000Z,22.53
2022-12-10T07:27:46.316Z,26.07
2022-12-10T07:30:14.221Z,23.97
2022-12-10T07:32:41.566Z,23.67
2022-12-10T07:35:09.500Z,24.57
2022-12-10T07:37:37.079Z,27.33
2022-12-10T07:40:05.158Z,26.73
2022-12-10T07:42:32.479Z,25.27
2022-12-10T07:45:00.176Z,20.97
2022-12-10T07:47:27.525Z,19.60
2022-12-10T07:49:54.908Z,21.70
2022-12-10T07:52:22.516Z,23.80
2022-12-10T07:54:49.891Z,24.53
2022-12-10T07:57:17.208Z,21.30
2022-12-10T07:59:44.841Z,23.07
2022-12-10T08:02:12.171Z,21.20
2022-12-10T08:04:40.740Z,21.53
2022-12-10T08:07:08.892Z,19.17
2022-12-10T08:09:36.235Z,20.10
2022-12-10T08:12:03.844Z,17.30
2022-12-10T08:14:31.526Z,20.43
2022-12-10T08:16:58.821Z,19.93
2022-12-10T08:19:31.466Z,21.63
2022-12-10T08:21:59.401Z,18.87
2022-12-10T08:24:27.111Z,19.77
2022-12-10T08:26:54.447Z,19.17
2022-12-10T08:29:21.928Z,23.00
2022-12-10T08:31:49.823Z,22.83
2022-12-10T08:34:18.215Z,22.50
2022-12-10T08:36:45.686Z,22.20
2022-12-10T08:39:17.723Z,23.07
2022-12-10T08:41:45.620Z,21.40
2022-12-10T08:44:13.895Z,20.33
2022-12-10T08:46:41.285Z,22.20
2022-12-10T08:49:08.592Z,24.30
2022-12-10T08:51:36.221Z,22.53
2022-12-10T08:54:03.605Z,22.47
2022-12-10T08:56:31.896Z,29.23
2022-12-10T08:58:59.517Z,29.17
2022-12-10T09:01:27.100Z,31.67
2022-12-10T09:03:55.079Z,33.20
2022-12-10T09:06:24.931Z,34.40
2022-12-10T09:08:52.412Z,35.70
2022-12-10T09:11:22.055Z,37.30
2022-12-10T09:13:50.760Z,35.93
2022-12-10T09:16:18.361Z,37.40
2022-12-10T09:18:45.730Z,38.13
2022-12-10T09:21:16.073Z,42.80
2022-12-10T09:23:43.657Z,41.70
2022-12-10T09:26:12.667Z,38.13
2022-12-10T09:28:40.435Z,38.27
2022-12-10T09:31:14.188Z,40.50
2022-12-10T09:33:43.892Z,42.20
2022-12-10T09:36:11.699Z,37.70
2022-12-10T09:38:40.162Z,42.10
2022-12-10T09:41:23.224Z,45.53
2022-12-10T09:44:08.235Z,45.30
2022-12-10T09:46:41.705Z,42.17
2022-12-10T09:49:17.701Z,46.47
2022-12-10T09:51:45.335Z,50.40
2022-12-10T09:54:29.066Z,43.80
2022-12-10T09:56:56.716Z,48.57
2022-12-10T09:59:35.833Z,43.87
2022-12-10T10:02:22.252Z,42.57
2022-12-10T10:07:24.877Z,45.23
2022-12-10T10:09:56.018Z,44.87
2022-12-10T10:12:23.431Z,46.00
2022-12-10T10:14:50.835Z,46.97
2022-12-10T10:17:28.424Z,45.97
2022-12-10T10:19:58.827Z,45.20
2022-12-10T10:22:27.548Z,43.93
2022-12-10T10:24:55.001Z,42.60
2022-12-10T10:27:30.039Z,46.40
2022-12-10T10:29:58.715Z,45.83
2022-12-10T10:32:41.703Z,51.03
2022-12-10T10:35:19.693Z,45.27
2022-12-10T10:37:47.108Z,44.50
2022-12-10T10:40:34.610Z,41.97
2022-12-10T10:43:02.026Z,40.20
2022-12-10T10:45:36.566Z,36.20
2022-12-10T10:48:24.724Z,34.83
2022-12-10T10:51:16.992Z,33.40
2022-12-10T10:53:57.022Z,39.60
2022-12-10T10:56:43.720Z,41.03
2022-12-10T11:01:49.390Z,39.30
2022-12-10T11:04:17.616Z,43.50
2022-12-10T11:06:45.153Z,40.00
2022-12-10T11:09:20.986Z,40.43
2022-12-10T11:11:51.986Z,40.20
2022-12-10T11:14:24.530Z,43.47
2022-12-10T11:16:52.300Z,35.60
2022-12-10T11:19:22.305Z,34.03
2022-12-10T11:21:50.416Z,34.97
2022-12-10T11:24:19.218Z,34.40
2022-12-10T11:27:04.420Z,40.17
2022-12-10T11:30:20.790Z,37.80
2022-12-10T11:33:27.345Z,40.23
2022-12-10T11:35:58.707Z,37.80
2022-12-10T11:38:35.867Z,37.90
2022-12-10T11:41:24.109Z,39.73
2022-12-10T11:44:01.225Z,47.03
2022-12-10T11:46:57.680Z,49.53
2022-12-10T11:50:01.811Z,43.97
2022-12-10T11:53:05.435Z,50.00
2022-12-10T11:56:00.955Z,45.47
2022-12-10T11:58:44.234Z,42.67
2022-12-10T12:01:41.089Z,45.57
2022-12-10T12:04:34.663Z,44.57
2022-12-10T12:07:15.533Z,46.87
2022-12-10T12:09:59.643Z,44.77
2022-12-10T12:12:43.829Z,39.90
2022-12-10T12:15:23.313Z,40.37
2022-12-10T12:17:58.531Z,40.77
2022-12-10T12:20:38.546Z,42.17
2022-12-10T12:23:46.354Z,46.07
2022-12-10T12:26:22.549Z,44.57
2022-12-10T12:29:20.602Z,49.88
2022-12-10T12:32:09.644Z,42.57
2022-12-10T12:34:51.211Z,43.13
2022-12-10T12:37:23.326Z,47.03
2022-12-10T12:40:03.584Z,47.07
2022-12-10T12:43:04.466Z,46.37
2022-12-10T12:45:39.586Z,51.70
2022-12-10T12:48:29.468Z,42.67
2022-12-10T12:51:18.064Z,50.53
2022-12-10T12:53:45.700Z,43.00
2022-12-10T12:56:25.793Z,44.47
2022-12-10T12:59:13.718Z,45.97
2022-12-10T13:02:00.002Z,46.27
2022-12-10T13:04:27.632Z,44.73
2022-12-10T13:07:11.029Z,46.10
2022-12-10T13:09:52.134Z,45.80
2022-12-10T13:12:31.028Z,48.67
2022-12-10T13:15:23.657Z,47.97
2022-12-10T13:18:04.830Z,49.17
2022-12-10T13:20:40.690Z,53.80
2022-12-10T13:23:26.249Z,52.63
2022-12-10T13:25:56.788Z,55.88
2022-12-10T13:28:28.532Z,52.20
2022-12-10T13:31:17.560Z,50.70
2022-12-10T13:33:54.189Z,48.27
2022-12-10T13:36:34.100Z,52.83
2022-12-10T13:39:04.325Z,53.23
2022-12-10T13:41:58.943Z,57.87
2022-12-10T13:44:35.471Z,54.90
2022-12-10T13:47:32.834Z,58.22
2022-12-10T13:50:01.134Z,58.97
2022-12-10T13:53:09.951Z,65.03
2022-12-10T13:56:10.025Z,59.57
2022-12-10T13:58:37.543Z,61.70
2022-12-10T14:01:33.022Z,60.10
2022-12-10T14:04:34.483Z,59.30
2022-12-10T14:07:01.871Z,52.73
2022-12-10T14:09:35.842Z,56.63
2022-12-10T14:12:06.916Z,60.07
2022-12-10T14:14:36.151Z,53.93
2022-12-10T14:17:13.103Z,59.93
2022-12-10T14:19:40.748Z,54.67
2022-12-10T14:22:08.535Z,54.60
2022-12-10T14:24:41.046Z,53.10
2022-12-10T14:27:18.563Z,57.80
2022-12-10T14:29:50.484Z,56.13
2022-12-10T14:32:20.867Z,57.90
2022-12-10T14:34:53.756Z,53.70
2022-12-10T14:37:23.185Z,57.00
2022-12-10T14:39:50.504Z,48.20
2022-12-10T14:42:17.854Z,52.17
2022-12-10T14:44:46.264Z,51.23
2022-12-10T14:47:18.316Z,51.63
2022-12-10T14:49:48.190Z,57.73
2022-12-10T14:52:32.799Z,50.70
2022-12-10T14:55:00.411Z,56.40
2022-12-10T14:57:32.212Z,55.23
2022-12-10T15:00:12.302Z,55.27
2022-12-10T15:02:41.486Z,58.30
2022-12-10T15:05:14.289Z,53.00
2022-12-10T15:07:41.757Z,57.57
2022-12-10T15:10:17.991Z,57.07
2022-12-10T15:12:47.076Z,58.50
2022-12-10T15:15:29.158Z,62.87
2022-12-10T15:18:02.557Z,56.40
2022-12-10T15:20:38.859Z,50.93
2022-12-10T15:23:17.968Z,52.78
2022-12-10T15:25:47.890Z,48.87
2022-12-10T15:28:25.552Z,49.67
2022-12-10T15:30:55.614Z,52.80
2022-12-10T15:33:25.231Z,47.23
2022-12-10T15:35:55.646Z,53.13
2022-12-10T15:38:23.639Z,50.80
2022-12-10T15:40:50.943Z,58.30
2022-12-10T15:43:25.680Z,50.50
2022-12-10T15:45:53.044Z,51.83
2022-12-10T15:48:20.893Z,55.17
2022-12-10T15:50:49.646Z,50.17
2022-12-10T15:53:32.253Z,48.63
2022-12-10T15:56:03.802Z,52.13
2022-12-10T15:58:31.293Z,55.47
2022-12-10T16:00:58.681Z,50.50
2022-12-10T16:03:26.355Z,53.23
2022-12-10T16:05:53.761Z,58.20
2022-12-10T16:08:25.489Z,57.93
2022-12-10T16:10:53.998Z,55.80
2022-12-10T16:13:29.402Z,56.70
2022-12-10T16:15:59.087Z,59.87
2022-12-10T16:18:30.609Z,67.17
2022-12-10T16:21:01.233Z,57.73
2022-12-10T16:23:28.647Z,56.70
2022-12-10T16:25:56.102Z,57.27
2022-12-10T16:28:24.035Z,58.93
2022-12-10T16:30:52.803Z,57.87
2022-12-10T16:33:20.964Z,59.03
2022-12-10T16:35:48.839Z,56.87
2022-12-10T16:38:16.587Z,58.30
2022-12-10T16:40:44.430Z,61.43
2022-12-10T16:43:16.554Z,55.97
2022-12-10T16:45:44.112Z,54.37
2022-12-10T16:48:12.067Z,54.13
2022-12-10T16:50:39.680Z,53.43
2022-12-10T16:53:22.659Z,57.87
2022-12-10T16:55:50.770Z,51.93
2022-12-10T16:58:18.610Z,51.60
2022-12-10T17:00:48.024Z,49.77
2022-12-10T17:03:23.677Z,52.47
2022-12-10T17:05:52.627Z,53.80
2022-12-10T17:08:20.540Z,49.50
2022-12-10T17:11:06.945Z,51.40
2022-12-10T17:13:35.511Z,46.40
2022-12-10T17:16:04.241Z,51.73
2022-12-10T17:18:31.755Z,48.10
2022-12-10T17:20:59.362Z,51.53
2022-12-10T17:23:29.660Z,47.10
2022-12-10T17:25:59.603Z,50.13
2022-12-10T17:28:27.212Z,45.17
2022-12-10T17:30:54.674Z,47.43
2022-12-10T17:33:22.652Z,49.63
2022-12-10T17:35:51.424Z,51.10
2022-12-10T17:38:23.819Z,45.03
2022-12-10T17:40:52.196Z,49.30
2022-12-10T17:43:19.771Z,44.63
2022-12-10T17:45:47.372Z,43.40
2022-12-10T17:48:16.424Z,43.73
2022-12-10T17:50:45.057Z,41.50
2022-12-10T17:53:15.337Z,41.30
2022-12-10T17:55:48.509Z,41.37
2022-12-10T17:58:16.427Z,41.27
2022-12-10T18:00:44.649Z,41.10
2022-12-10T18:03:12.420Z,37.27
2022-12-10T18:05:40.148Z,36.23
2022-12-10T18:08:07.573Z,38.77
2022-12-10T18:10:35.291Z,40.33
2022-12-10T18:13:02.759Z,37.40
2022-12-10T18:15:30.275Z,37.03
2022-12-10T18:17:59.163Z,34.73
2022-12-10T18:20:29.143Z,39.07
2022-12-10T18:22:56.795Z,37.03
2022-12-10T18:25:24.522Z,35.30
2022-12-10T18:27:52.019Z,35.13
2022-12-10T18:30:21.680Z,37.70
2022-12-10T18:32:49.580Z,33.43
2022-12-10T18:35:16.930Z,33.83
2022-12-10T18:37:44.331Z,32.93
2022-12-10T18:40:17.082Z,34.10
2022-12-10T18:42:47.384Z,30.33
2022-12-10T18:45:15.584Z,30.20
2022-12-10T18:47:43.004Z,36.17
2022-12-10T18:50:21.209Z,36.90
2022-12-10T18:52:48.864Z,35.97
2022-12-10T18:55:16.807Z,32.47
2022-12-10T18:57:46.128Z,31.97
2022-12-10T19:00:23.916Z,29.80
2022-12-10T19:02:51.255Z,38.67
2022-12-10T19:05:19.204Z,30.30
2022-12-10T19:07:46.921Z,36.70
2022-12-10T19:10:17.387Z,33.27
2022-12-10T19:12:44.988Z,31.17
2022-12-10T19:15:13.062Z,37.97
2022-12-10T19:17:41.479Z,35.87
2022-12-10T19:20:19.471Z,30.80
2022-12-10T19:22:46.888Z,33.83
2022-12-10T19:25:14.614Z,32.57
2022-12-10T19:27:42.140Z,38.90
2022-12-10T19:30:17.801Z,38.23
2022-12-10T19:32:46.311Z,36.33
2022-12-10T19:35:15.298Z,35.80
2022-12-10T19:37:44.749Z,35.80
2022-12-10T19:40:27.318Z,35.40
2022-12-10T19:42:54.833Z,38.30
2022-12-10T19:45:22.786Z,35.17
2022-12-10T19:47:54.206Z,39.77
2022-12-10T19:50:22.987Z,36.13
2022-12-10T19:52:50.357Z,37.17
2022-12-10T19:55:18.039Z,38.53
2022-12-10T19:57:45.849Z,34.60
2022-12-10T20:00:24.939Z,38.93
2022-12-10T20:02:53.032Z,38.57
2022-12-10T20:05:20.873Z,31.07
2022-12-10T20:07:48.622Z,35.90
2022-12-10T20:10:27.599Z,31.67
2022-12-10T20:12:55.216Z,35.43
2022-12-10T20:15:23.356Z,30.03
2022-12-10T20:17:50.888Z,33.40
2022-12-10T20:20:22.665Z,32.20
2022-12-10T20:22:50.519Z,31.67
2022-12-10T20:25:18.173Z,28.63
2022-12-10T20:27:45.782Z,28.17
2022-12-10T20:30:23.375Z,31.13
2022-12-10T20:32:51.439Z,30.00
2022-12-10T20:35:19.800Z,30.90
2022-12-10T20:37:47.746Z,36.27
2022-12-10T20:40:35.343Z,32.63
2022-12-10T20:43:03.141Z,28.30
2022-12-10T20:45:30.532Z,30.33
2022-12-10T20:47:57.952Z,33.73
2022-12-10T20:50:25.595Z,34.10
2022-12-10T20:52:53.019Z,32.00
2022-12-10T20:55:20.348Z,31.07
2022-12-10T20:57:48.093Z,29.10
2022-12-10T21:00:16.799Z,27.07
2022-12-10T21:02:44.615Z,29.87
2022-12-10T21:05:13.399Z,25.57
2022-12-10T21:07:41.129Z,26.50
2022-12-10T21:10:28.958Z,28.67
2022-12-10T21:12:56.619Z,24.70
2022-12-10T21:15:24.333Z,29.77
2022-12-10T21:17:51.742Z,26.07
2022-12-10T21:20:21.757Z,27.07
2022-12-10T21:22:52.983Z,26.37
2022-12-10T21:25:20.582Z,24.30
2022-12-10T21:27:48.007Z,26.23
2022-12-10T21:30:15.349Z,27.40
2022-12-10T21:32:43.116Z,27.70
2022-12-10T21:35:10.839Z,29.43
2022-12-10T21:37:38.378Z,26.47
2022-12-10T21:40:06.424Z,28.20
2022-12-10T21:42:52.727Z,25.77
2022-12-10T21:45:20.399Z,27.63
2022-12-10T21:47:47.716Z,24.43
2022-12-10T21:50:15.118Z,27.60
2022-12-10T21:52:44.185Z,28.57
2022-12-10T21:55:11.881Z,30.97
2022-12-10T21:57:39.541Z,27.63
2022-12-10T22:00:09.379Z,26.50
2022-12-10T22:02:39.741Z,25.30
2022-12-10T22:05:09.049Z,26.40
2022-12-10T22:07:37.188Z,24.77
2022-12-10T22:10:05.084Z,26.73
2022-12-10T22:12:32.722Z,24.27
2022-12-10T22:15:00.131Z,24.60
2022-12-10T22:17:27.588Z,27.20
2022-12-10T22:19:55.197Z,23.07
2022-12-10T22:22:22.553Z,18.93
2022-12-10T22:24:49.903Z,23.90
2022-12-10T22:27:17.993Z,24.87
2022-12-10T22:29:45.960Z,23.33
2022-12-10T22:32:13.548Z,20.87
2022-12-10T22:34:45.357Z,23.43
2022-12-10T22:37:13.100Z,22.43
2022-12-10T22:39:40.763Z,22.50
2022-12-10T22:42:08.115Z,23.30
2022-12-10T22:44:35.503Z,23.13
2022-12-10T22:47:03.246Z,25.77
2022-12-10T22:49:35.727Z,24.47
2022-12-10T22:52:06.326Z,24.90
2022-12-10T22:54:33.807Z,25.23
2022-12-10T22:57:01.123Z,26.43
2022-12-10T22:59:28.815Z,24.27
2022-12-10T23:01:58.531Z,26.77
2022-12-10T23:04:25.943Z,25.30
2022-12-10T23:06:53.591Z,24.93
2022-12-10T23:09:21.185Z,25.47
2022-12-10T23:12:07.132Z,30.83
2022-12-10T23:14:34.907Z,27.67
2022-12-10T23:17:02.231Z,30.60
2022-12-10T23:19:29.609Z,30.10
2022-12-10T23:21:57.626Z,28.33
2022-12-10T23:24:24.982Z,30.50
2022-12-10T23:26:52.425Z,30.17
2022-12-10T23:29:20.055Z,26.20
2022-12-10T23:31:47.771Z,28.77
2022-12-10T23:34:15.221Z,32.60
2022-12-10T23:36:42.832Z,27.43
2022-12-10T23:39:10.162Z,30.17
2022-12-10T23:41:37.606Z,28.67
2022-12-10T23:44:05.430Z,29.90
2022-12-10T23:46:32.776Z,28.80
2022-12-10T23:49:00.174Z,30.20
2022-12-10T23:51:27.899Z,29.40
2022-12-10T23:53:55.234Z,33.27
2022-12-10T23:56:22.602Z,29.90
2022-12-10T23:58:50.176Z,31.13
